createdAt,value
2018-08-23T00:01:31.633Z,7.57
2018-08-23T00:04:06.204Z,6.90
2018-08-23T00:06:34.674Z,7.20
2018-08-23T00:09:03.155Z,9.20
2018-08-23T00:11:34.960Z,7.57
2018-08-23T00:14:03.249Z,7.53
2018-08-23T00:16:46.807Z,7.90
2018-08-23T00:19:16.089Z,6.87
2018-08-23T00:21:46.614Z,7.63
2018-08-23T00:24:17.125Z,7.87
2018-08-23T00:26:47.668Z,8.87
2018-08-23T00:29:21.473Z,8.83
2018-08-23T00:31:52.412Z,8.17
2018-08-23T00:34:21.881Z,7.87
2018-08-23T00:36:50.199Z,7.93
2018-08-23T00:39:18.484Z,8.50
2018-08-23T00:41:53.064Z,7.35
2018-08-23T00:44:21.289Z,8.97
2018-08-23T00:46:49.568Z,10.90
2018-08-23T00:49:18.367Z,8.15
2018-08-23T00:51:47.225Z,8.77
2018-08-23T00:54:16.386Z,9.30
2018-08-23T00:56:45.684Z,8.83
2018-08-23T00:59:16.141Z,7.47
2018-08-23T01:02:00.044Z,9.57
2018-08-23T01:04:29.305Z,10.57
2018-08-23T01:06:57.560Z,9.67
2018-08-23T01:09:27.100Z,8.40
2018-08-23T01:11:55.881Z,9.63
2018-08-23T01:14:24.252Z,8.23
2018-08-23T01:17:06.328Z,9.03
2018-08-23T01:20:06.378Z,9.63
2018-08-23T01:22:34.736Z,8.70
2018-08-23T01:25:03.456Z,10.43
2018-08-23T01:27:37.639Z,9.67
2018-08-23T01:30:06.665Z,10.20
2018-08-23T01:32:34.948Z,7.63
2018-08-23T01:35:03.728Z,8.77
2018-08-23T01:37:38.111Z,8.03
2018-08-23T01:40:08.056Z,9.07
2018-08-23T01:42:37.380Z,10.33
2018-08-23T01:45:06.820Z,11.27
2018-08-23T01:48:11.533Z,9.50
2018-08-23T01:50:40.425Z,8.90
2018-08-23T01:53:08.659Z,8.03
2018-08-23T01:55:37.007Z,8.53
2018-08-23T01:58:05.504Z,8.63
2018-08-23T02:00:36.017Z,8.47
2018-08-23T02:03:04.713Z,9.13
2018-08-23T02:05:33.090Z,11.48
2018-08-23T02:08:01.476Z,10.47
2018-08-23T02:10:29.773Z,10.32
2018-08-23T02:12:58.643Z,8.27
2018-08-23T02:15:35.263Z,8.90
2018-08-23T02:18:03.981Z,9.13
2018-08-23T02:20:32.327Z,9.38
2018-08-23T02:23:00.997Z,8.73
2018-08-23T02:25:29.249Z,8.90
2018-08-23T02:27:59.660Z,9.27
2018-08-23T02:30:42.847Z,9.00
2018-08-23T02:33:13.200Z,10.10
2018-08-23T02:35:51.725Z,9.27
2018-08-23T02:38:19.962Z,9.47
2018-08-23T02:40:48.288Z,9.57
2018-08-23T02:43:17.361Z,10.45
2018-08-23T02:45:52.397Z,9.63
2018-08-23T02:48:21.417Z,9.93
2018-08-23T02:50:50.460Z,11.60
2018-08-23T02:53:29.321Z,11.43
2018-08-23T02:56:02.203Z,9.77
2018-08-23T02:58:31.212Z,9.90
2018-08-23T03:01:02.282Z,9.77
2018-08-23T03:03:30.533Z,9.97
2018-08-23T03:05:58.791Z,11.50
2018-08-23T03:08:46.013Z,9.98
2018-08-23T03:11:15.484Z,10.03
2018-08-23T03:13:45.014Z,11.17
2018-08-23T03:16:14.333Z,10.33
2018-08-23T03:18:44.020Z,10.83
2018-08-23T03:21:13.456Z,10.93
2018-08-23T03:23:45.410Z,9.53
2018-08-23T03:26:13.960Z,8.90
2018-08-23T03:28:42.482Z,10.32
2018-08-23T03:31:11.161Z,11.50
2018-08-23T03:33:39.427Z,10.83
2018-08-23T03:36:07.676Z,10.80
2018-08-23T03:38:35.970Z,12.30
2018-08-23T03:41:04.368Z,11.17
2018-08-23T03:43:32.812Z,10.47
2018-08-23T03:46:01.130Z,9.70
2018-08-23T03:48:29.329Z,13.57
2018-08-23T03:50:57.651Z,9.20
2018-08-23T03:53:40.614Z,10.20
2018-08-23T03:56:09.591Z,9.73
2018-08-23T03:58:37.857Z,9.30
2018-08-23T04:01:11.374Z,10.87
2018-08-23T04:03:39.656Z,10.17
2018-08-23T04:06:24.014Z,12.40
2018-08-23T04:08:52.265Z,9.73
2018-08-23T04:11:21.110Z,10.03
2018-08-23T04:13:49.846Z,11.13
2018-08-23T04:16:27.048Z,10.10
2018-08-23T04:18:55.889Z,9.50
2018-08-23T04:21:24.114Z,12.17
2018-08-23T04:23:52.429Z,10.70
2018-08-23T04:26:21.218Z,11.20
2018-08-23T04:28:49.652Z,10.63
2018-08-23T04:31:19.882Z,11.12
2018-08-23T04:33:48.248Z,13.27
2018-08-23T04:36:30.209Z,11.03
2018-08-23T04:39:07.796Z,11.20
2018-08-23T04:41:35.997Z,12.43
2018-08-23T04:44:14.342Z,10.63
2018-08-23T04:46:43.382Z,12.00
2018-08-23T04:49:11.667Z,10.83
2018-08-23T04:51:39.897Z,11.20
2018-08-23T04:54:08.133Z,10.75
2018-08-23T04:56:36.428Z,10.13
2018-08-23T04:59:04.722Z,11.80
2018-08-23T05:01:33.060Z,11.60
2018-08-23T05:04:01.352Z,11.97
2018-08-23T05:06:29.589Z,12.33
2018-08-23T05:08:57.827Z,12.60
2018-08-23T05:11:26.401Z,14.03
2018-08-23T05:13:54.708Z,11.28
2018-08-23T05:16:22.913Z,11.47
2018-08-23T05:18:51.395Z,14.40
2018-08-23T05:21:20.213Z,26.93
2018-08-23T05:23:48.785Z,14.53
2018-08-23T05:26:18.574Z,12.70
2018-08-23T05:28:59.363Z,13.00
2018-08-23T05:31:28.955Z,11.73
2018-08-23T05:34:02.673Z,12.73
2018-08-23T05:36:30.917Z,12.47
2018-08-23T05:38:59.706Z,12.87
2018-08-23T05:41:28.013Z,12.60
2018-08-23T05:44:01.531Z,14.23
2018-08-23T05:46:31.745Z,11.83
2018-08-23T05:49:00.618Z,11.00
2018-08-23T05:51:29.922Z,11.30
2018-08-23T05:53:58.314Z,12.83
2018-08-23T05:56:27.127Z,11.53
2018-08-23T05:58:59.649Z,10.50
2018-08-23T06:01:28.089Z,12.33
2018-08-23T06:03:56.460Z,11.60
2018-08-23T06:06:24.794Z,11.73
2018-08-23T06:08:57.257Z,10.80
2018-08-23T06:11:25.522Z,10.87
2018-08-23T06:13:53.846Z,13.77
2018-08-23T06:16:22.206Z,10.50
2018-08-23T06:18:50.682Z,14.00
2018-08-23T06:21:19.086Z,11.35
2018-08-23T06:23:55.570Z,15.47
2018-08-23T06:26:37.225Z,10.17
2018-08-23T06:29:05.604Z,10.60
2018-08-23T06:31:33.962Z,10.75
2018-08-23T06:34:02.541Z,12.30
2018-08-23T06:36:35.277Z,11.43
2018-08-23T06:39:05.294Z,11.63
2018-08-23T06:41:33.873Z,10.37
2018-08-23T06:44:02.212Z,10.45
2018-08-23T06:46:30.520Z,9.80
2018-08-23T06:48:58.863Z,10.80
2018-08-23T06:51:27.029Z,12.63
2018-08-23T06:53:59.612Z,9.53
2018-08-23T06:56:27.902Z,14.77
2018-08-23T06:58:56.258Z,10.32
2018-08-23T07:01:38.028Z,10.85
2018-08-23T07:04:12.173Z,10.60
2018-08-23T07:06:40.510Z,10.33
2018-08-23T07:09:17.113Z,12.83
2018-08-23T07:11:45.908Z,12.10
2018-08-23T07:14:16.759Z,9.78
2018-08-23T07:16:46.641Z,9.63
2018-08-23T07:19:27.656Z,14.23
2018-08-23T07:21:56.537Z,11.43
2018-08-23T07:24:37.237Z,11.67
2018-08-23T07:27:08.109Z,10.40
2018-08-23T07:29:36.330Z,11.13
2018-08-23T07:32:07.177Z,10.30
2018-08-23T07:34:35.699Z,9.40
2018-08-23T07:37:23.680Z,13.60
2018-08-23T07:39:57.555Z,10.47
2018-08-23T07:42:27.856Z,12.40
2018-08-23T07:44:56.548Z,10.37
2018-08-23T07:47:24.860Z,9.45
2018-08-23T07:49:54.956Z,10.40
2018-08-23T07:52:23.634Z,10.23
2018-08-23T07:54:52.110Z,9.88
2018-08-23T07:57:20.648Z,11.27
2018-08-23T07:59:49.555Z,11.07
2018-08-23T08:02:17.982Z,13.73
2018-08-23T08:04:46.543Z,11.03
2018-08-23T08:07:19.171Z,10.67
2018-08-23T08:09:47.567Z,11.27
2018-08-23T08:12:21.301Z,10.85
2018-08-23T08:14:49.744Z,14.00
2018-08-23T08:17:23.503Z,9.53
2018-08-23T08:19:55.253Z,9.97
2018-08-23T08:22:23.603Z,10.30
2018-08-23T08:25:02.915Z,11.13
2018-08-23T08:27:31.448Z,10.73
2018-08-23T08:29:59.667Z,11.68
2018-08-23T08:32:27.939Z,8.50
2018-08-23T08:34:57.660Z,10.03
2018-08-23T08:37:26.549Z,10.53
2018-08-23T08:39:54.780Z,10.03
2018-08-23T08:42:29.831Z,8.63
2018-08-23T08:45:03.590Z,11.33
2018-08-23T08:47:32.168Z,9.73
2018-08-23T08:50:00.382Z,7.85
2018-08-23T08:52:29.085Z,7.23
2018-08-23T08:54:57.332Z,8.38
2018-08-23T08:57:30.365Z,8.93
2018-08-23T08:59:59.023Z,7.60
2018-08-23T09:02:29.555Z,10.68
2018-08-23T09:04:57.745Z,6.00
2018-08-23T09:07:28.503Z,6.50
2018-08-23T09:09:56.833Z,6.83
2018-08-23T09:12:24.996Z,6.60
2018-08-23T09:14:53.210Z,5.78
2018-08-23T09:17:37.972Z,7.13
2018-08-23T09:20:09.347Z,7.90
2018-08-23T09:22:41.046Z,7.53
2018-08-23T09:25:12.688Z,6.00
2018-08-23T09:27:40.909Z,7.13
2018-08-23T09:30:14.623Z,6.37
2018-08-23T09:32:43.773Z,5.33
2018-08-23T09:35:12.111Z,5.57
2018-08-23T09:37:40.948Z,5.40
2018-08-23T09:40:09.292Z,5.83
2018-08-23T09:42:38.111Z,3.45
2018-08-23T09:45:10.110Z,7.93
2018-08-23T09:47:38.438Z,6.83
2018-08-23T09:50:06.725Z,4.50
2018-08-23T09:52:42.210Z,4.12
2018-08-23T09:55:12.677Z,4.10
2018-08-23T09:57:41.363Z,5.67
2018-08-23T10:00:10.865Z,4.17
2018-08-23T10:02:44.488Z,5.00
2018-08-23T10:05:18.169Z,5.80
2018-08-23T10:07:51.873Z,5.63
2018-08-23T10:10:25.433Z,6.57
2018-08-23T10:12:59.149Z,4.37
2018-08-23T10:15:32.855Z,4.43
2018-08-23T10:18:06.497Z,5.93
2018-08-23T10:20:45.321Z,5.27
2018-08-23T10:23:16.472Z,4.07
2018-08-23T10:25:47.650Z,4.43
2018-08-23T10:28:17.739Z,3.30
2018-08-23T10:30:46.335Z,3.80
2018-08-23T10:33:15.797Z,4.08
2018-08-23T10:35:46.533Z,4.27
2018-08-23T10:38:17.661Z,3.67
2018-08-23T10:40:47.348Z,5.03
2018-08-23T10:43:16.485Z,4.27
2018-08-23T10:45:45.721Z,4.10
2018-08-23T10:48:16.349Z,4.10
2018-08-23T10:50:46.729Z,6.57
2018-08-23T10:53:15.461Z,4.80
2018-08-23T10:55:45.415Z,4.27
2018-08-23T10:58:14.544Z,4.60
2018-08-23T11:00:43.837Z,5.67
2018-08-23T11:03:12.602Z,5.50
2018-08-23T11:05:41.451Z,4.70
2018-08-23T11:08:15.454Z,3.50
2018-08-23T11:10:51.616Z,7.47
2018-08-23T11:13:25.275Z,5.33
2018-08-23T11:15:58.913Z,4.87
2018-08-23T11:18:33.268Z,3.23
2018-08-23T11:21:01.965Z,3.47
2018-08-23T11:23:30.202Z,4.33
2018-08-23T11:25:58.463Z,5.30
2018-08-23T11:28:27.238Z,3.67
2018-08-23T11:30:59.724Z,4.93
2018-08-23T11:33:39.009Z,4.43
2018-08-23T11:36:09.304Z,5.23
2018-08-23T11:38:38.452Z,5.53
2018-08-23T11:41:06.777Z,4.90
2018-08-23T11:43:35.040Z,5.37
2018-08-23T11:46:08.520Z,4.95
2018-08-23T11:48:37.700Z,4.93
2018-08-23T11:51:05.936Z,4.20
2018-08-23T11:53:34.638Z,5.87
2018-08-23T11:56:03.491Z,6.67
2018-08-23T11:58:31.845Z,4.70
2018-08-23T12:01:05.295Z,4.07
2018-08-23T12:03:33.542Z,3.87
2018-08-23T12:06:01.874Z,5.20
2018-08-23T12:08:30.131Z,4.05
2018-08-23T12:10:58.364Z,4.47
2018-08-23T12:13:26.606Z,3.50
2018-08-23T12:15:54.927Z,4.25
2018-08-23T12:18:23.644Z,4.20
2018-08-23T12:20:51.871Z,3.72
2018-08-23T12:23:20.102Z,4.83
2018-08-23T12:25:48.857Z,3.90
2018-08-23T12:28:22.408Z,5.17
2018-08-23T12:30:50.670Z,3.33
2018-08-23T12:33:18.885Z,3.90
2018-08-23T12:35:47.158Z,3.45
2018-08-23T12:38:21.612Z,4.67
2018-08-23T12:40:55.315Z,6.43
2018-08-23T12:43:56.268Z,4.50
2018-08-23T12:46:24.509Z,4.40
2018-08-23T12:48:56.591Z,5.07
2018-08-23T12:51:24.878Z,4.77
2018-08-23T12:53:53.208Z,3.53
2018-08-23T12:56:21.550Z,3.30
2018-08-23T12:58:49.837Z,3.93
2018-08-23T13:01:18.269Z,4.73
2018-08-23T13:03:46.775Z,4.67
2018-08-23T13:06:15.046Z,3.20
2018-08-23T13:08:44.845Z,6.40
2018-08-23T13:11:14.399Z,5.07
2018-08-23T13:13:43.521Z,3.90
2018-08-23T13:16:12.506Z,4.30
2018-08-23T13:18:40.789Z,4.77
2018-08-23T13:21:09.589Z,3.23
2018-08-23T13:23:42.054Z,4.67
2018-08-23T13:26:10.333Z,5.77
2018-08-23T13:28:38.641Z,4.10
2018-08-23T13:31:06.885Z,4.10
2018-08-23T13:33:35.186Z,3.97
2018-08-23T13:36:03.556Z,3.20
2018-08-23T13:38:31.796Z,4.03
2018-08-23T13:41:00.089Z,4.33
2018-08-23T13:43:28.384Z,4.27
2018-08-23T13:45:56.601Z,3.15
2018-08-23T13:48:24.979Z,3.50
2018-08-23T13:50:53.072Z,5.20
2018-08-23T13:53:21.293Z,5.08
2018-08-23T13:55:49.569Z,4.27
2018-08-23T13:58:17.866Z,4.93
2018-08-23T14:00:46.475Z,4.58
2018-08-23T14:03:16.290Z,3.90
2018-08-23T14:05:46.220Z,3.23
2018-08-23T14:08:14.872Z,3.37
2018-08-23T14:10:44.329Z,4.55
2018-08-23T14:13:13.907Z,5.07
2018-08-23T14:15:47.444Z,3.17
2018-08-23T14:18:15.889Z,4.00
2018-08-23T14:20:45.265Z,5.25
2018-08-23T14:23:14.352Z,4.53
2018-08-23T14:25:43.381Z,4.60
2018-08-23T14:28:11.685Z,5.17
2018-08-23T14:30:40.599Z,4.27
2018-08-23T14:33:08.877Z,5.57
2018-08-23T14:35:37.296Z,3.00
2018-08-23T14:38:05.633Z,7.40
2018-08-23T14:40:33.901Z,4.57
2018-08-23T14:43:02.176Z,5.65
2018-08-23T14:45:32.010Z,3.20
2018-08-23T14:48:05.675Z,3.63
2018-08-23T14:50:35.045Z,3.70
2018-08-23T14:53:03.773Z,3.87
2018-08-23T14:55:37.427Z,3.10
2018-08-23T14:58:05.920Z,3.17
2018-08-23T15:00:34.201Z,4.60
2018-08-23T15:03:02.490Z,4.63
2018-08-23T15:05:30.741Z,6.33
2018-08-23T15:07:59.063Z,10.63
2018-08-23T15:10:27.297Z,7.80
2018-08-23T15:12:55.585Z,5.75
2018-08-23T15:15:29.204Z,6.10
2018-08-23T15:17:57.466Z,5.23
2018-08-23T15:20:25.725Z,4.60
2018-08-23T15:22:54.001Z,5.78
2018-08-23T15:25:22.294Z,5.23
2018-08-23T15:27:50.560Z,5.23
2018-08-23T15:30:18.851Z,5.30
2018-08-23T15:32:47.136Z,4.03
2018-08-23T15:35:15.520Z,5.37
2018-08-23T15:37:44.981Z,3.43
2018-08-23T15:40:14.419Z,3.93
2018-08-23T15:42:47.244Z,5.97
2018-08-23T15:45:16.007Z,5.57
2018-08-23T15:47:45.422Z,4.77
2018-08-23T15:50:14.367Z,6.20
2018-08-23T15:52:45.227Z,3.50
2018-08-23T15:55:14.498Z,5.00
2018-08-23T15:57:43.796Z,4.80
2018-08-23T16:00:12.073Z,3.50
2018-08-23T16:02:40.321Z,3.57
2018-08-23T16:05:08.606Z,4.08
2018-08-23T16:07:37.067Z,5.80
2018-08-23T16:10:06.614Z,4.55
2018-08-23T16:12:34.865Z,3.73
2018-08-23T16:15:07.402Z,6.20
2018-08-23T16:17:41.092Z,5.10
2018-08-23T16:20:14.919Z,6.03
2018-08-23T16:22:47.467Z,4.57
2018-08-23T16:25:15.787Z,6.27
2018-08-23T16:27:44.912Z,4.42
2018-08-23T16:30:13.877Z,8.98
2018-08-23T16:32:42.152Z,6.03
2018-08-23T16:35:10.530Z,8.10
2018-08-23T16:37:38.879Z,7.50
2018-08-23T16:40:07.256Z,5.77
2018-08-23T16:42:35.539Z,5.62
2018-08-23T16:45:05.095Z,4.70
2018-08-23T16:47:33.524Z,4.30
2018-08-23T16:50:01.873Z,5.93
2018-08-23T16:52:30.273Z,5.42
2018-08-23T16:54:58.519Z,4.23
2018-08-23T16:57:26.814Z,5.87
2018-08-23T16:59:55.045Z,4.78
2018-08-23T17:02:23.279Z,4.67
2018-08-23T17:04:51.744Z,5.87
2018-08-23T17:07:20.028Z,5.00
2018-08-23T17:09:48.268Z,4.13
2018-08-23T17:12:16.723Z,4.83
2018-08-23T17:14:45.103Z,3.37
2018-08-23T17:19:55.922Z,4.47
2018-08-23T17:22:24.155Z,5.37
2018-08-23T17:24:52.416Z,4.25
2018-08-23T17:27:20.638Z,3.97
2018-08-23T17:29:48.802Z,4.23
2018-08-23T17:32:16.957Z,3.00
2018-08-23T17:34:45.123Z,4.60
2018-08-23T17:37:13.279Z,4.00
2018-08-23T17:39:41.470Z,3.17
2018-08-23T17:42:09.608Z,3.87
2018-08-23T17:44:37.809Z,5.63
2018-08-23T17:47:06.115Z,4.33
2018-08-23T17:49:34.292Z,4.17
2018-08-23T17:52:02.736Z,4.77
2018-08-23T17:54:30.924Z,4.92
2018-08-23T17:56:59.089Z,5.63
2018-08-23T18:13:10.512Z,4.73
2018-08-23T18:15:44.048Z,3.77
2018-08-23T18:18:12.256Z,5.07
2018-08-23T18:20:40.456Z,4.97
2018-08-23T18:23:09.977Z,4.53
2018-08-23T18:25:38.248Z,3.07
2018-08-23T18:28:08.025Z,15.00
2018-08-23T18:30:36.308Z,5.20
2018-08-23T18:33:04.532Z,3.57
2018-08-23T18:35:32.841Z,4.10
2018-08-23T18:38:01.035Z,6.40
2018-08-23T18:40:29.245Z,3.83
2018-08-23T18:42:57.436Z,5.20
2018-08-23T18:45:25.743Z,5.27
2018-08-23T18:47:53.956Z,4.30
2018-08-23T18:50:22.364Z,4.70
2018-08-23T18:52:50.538Z,5.33
2018-08-23T18:55:18.768Z,3.87
2018-08-23T18:57:47.636Z,6.53
2018-08-23T19:00:15.970Z,5.40
2018-08-23T19:05:26.392Z,6.40
2018-08-23T19:07:54.617Z,6.33
2018-08-23T19:10:22.803Z,7.62
2018-08-23T19:12:51.047Z,9.70
2018-08-23T19:15:24.687Z,9.90
2018-08-23T19:17:52.871Z,7.43
2018-08-23T19:20:21.120Z,5.53
2018-08-23T19:22:49.273Z,4.92
2018-08-23T19:25:17.553Z,6.60
2018-08-23T19:27:45.741Z,6.10
2018-08-23T19:30:14.169Z,7.55
2018-08-23T19:32:42.353Z,5.43
2018-08-23T19:35:10.617Z,4.63
2018-08-23T19:37:38.763Z,4.20
2018-08-23T19:40:06.919Z,8.93
2018-08-23T19:42:35.289Z,6.97
2018-08-23T19:45:03.447Z,5.90
2018-08-23T19:47:36.892Z,5.20
2018-08-23T19:50:12.103Z,6.00
2018-08-23T19:52:40.256Z,4.60
2018-08-23T19:55:09.288Z,6.93
2018-08-23T19:57:37.483Z,8.90
2018-08-23T20:00:07.104Z,5.00
2018-08-23T20:02:35.306Z,5.07
2018-08-23T20:05:03.521Z,6.10
2018-08-23T20:07:31.733Z,5.95
2018-08-23T20:09:59.928Z,4.33
2018-08-23T20:12:28.202Z,5.40
2018-08-23T20:14:56.356Z,6.08
2018-08-23T20:17:25.316Z,4.40
2018-08-23T20:19:53.550Z,6.00
2018-08-23T20:22:21.766Z,6.47
2018-08-23T20:24:50.035Z,5.45
2018-08-23T20:27:18.234Z,5.73
2018-08-23T20:29:46.450Z,6.50
2018-08-23T20:32:14.736Z,5.22
2018-08-23T20:34:42.926Z,5.43
2018-08-23T20:37:11.230Z,5.53
2018-08-23T20:39:39.563Z,5.67
2018-08-23T20:42:07.693Z,6.10
2018-08-23T20:44:35.896Z,7.47
2018-08-23T20:47:31.313Z,7.62
2018-08-23T20:50:00.106Z,6.60
2018-08-23T20:52:28.687Z,9.20
2018-08-23T20:54:57.526Z,8.50
2018-08-23T20:57:26.261Z,7.30
2018-08-23T20:59:56.369Z,5.53
2018-08-23T21:02:25.387Z,6.47
2018-08-23T21:04:53.944Z,6.42
2018-08-23T21:07:24.563Z,7.35
2018-08-23T21:09:53.269Z,5.90
2018-08-23T21:12:24.163Z,6.95
2018-08-23T21:14:54.463Z,7.30
2018-08-23T21:17:23.170Z,8.07
2018-08-23T21:19:52.104Z,5.72
2018-08-23T21:22:21.835Z,7.42
2018-08-23T21:24:52.077Z,7.93
2018-08-23T21:27:20.980Z,7.93
2018-08-23T21:29:49.948Z,7.33
2018-08-23T21:32:21.155Z,6.40
2018-08-23T21:34:54.187Z,6.53
2018-08-23T21:37:23.753Z,9.60
2018-08-23T21:39:52.648Z,6.63
2018-08-23T21:42:22.749Z,8.87
2018-08-23T21:44:51.822Z,6.93
2018-08-23T21:47:21.238Z,6.33
2018-08-23T21:49:50.515Z,7.73
2018-08-23T21:52:20.099Z,5.90
2018-08-23T21:54:49.637Z,5.53
2018-08-23T21:57:19.032Z,6.13
2018-08-23T21:59:49.731Z,7.83
2018-08-23T22:02:19.569Z,6.73
2018-08-23T22:04:56.121Z,7.17
2018-08-23T22:07:25.777Z,9.93
2018-08-23T22:09:55.680Z,6.33
2018-08-23T22:12:26.104Z,6.37
2018-08-23T22:14:56.302Z,6.97
2018-08-23T22:17:25.815Z,5.30
2018-08-23T22:19:54.927Z,6.27
2018-08-23T22:22:23.956Z,6.90
2018-08-23T22:24:52.996Z,9.07
2018-08-23T22:27:22.091Z,7.17
2018-08-23T22:29:51.037Z,11.07
2018-08-23T22:32:20.014Z,6.60
2018-08-23T22:34:49.490Z,9.53
2018-08-23T22:37:18.507Z,9.17
2018-08-23T22:39:47.377Z,6.57
2018-08-23T22:42:16.347Z,7.43
2018-08-23T22:44:45.123Z,6.77
2018-08-23T22:47:13.841Z,8.27
2018-08-23T22:49:42.471Z,7.62
2018-08-23T22:52:11.246Z,7.77
2018-08-23T22:54:40.044Z,8.67
2018-08-23T22:57:08.757Z,9.17
2018-08-23T22:59:37.502Z,8.53
2018-08-23T23:02:06.404Z,9.17
2018-08-23T23:04:35.019Z,9.05
2018-08-23T23:07:08.605Z,8.23
2018-08-23T23:09:37.411Z,8.23
2018-08-23T23:12:07.905Z,9.13
2018-08-23T23:14:38.132Z,6.90
2018-08-23T23:17:07.788Z,7.57
2018-08-23T23:19:36.590Z,10.57
2018-08-23T23:22:05.608Z,7.43
2018-08-23T23:25:05.159Z,7.60
2018-08-23T23:27:34.111Z,7.40
2018-08-23T23:30:02.823Z,6.83
2018-08-23T23:32:31.597Z,8.17
2018-08-23T23:35:00.286Z,9.38
2018-08-23T23:37:29.097Z,8.10
2018-08-23T23:39:57.863Z,7.07
2018-08-23T23:42:26.489Z,8.47
2018-08-23T23:44:55.131Z,9.27
2018-08-23T23:47:23.814Z,7.85
2018-08-23T23:49:53.353Z,7.57
2018-08-23T23:52:21.939Z,7.93
2018-08-23T23:54:50.595Z,10.00
2018-08-23T23:57:19.224Z,8.85
2018-08-23T23:59:48.097Z,11.83
